createdAt,value
2022-07-29T00:00:02.198Z,19.40
2022-07-29T00:02:33.458Z,19.40
2022-07-29T00:05:04.955Z,19.40
2022-07-29T00:07:35.215Z,19.40
2022-07-29T00:10:03.444Z,19.40
2022-07-29T00:12:33.577Z,19.30
2022-07-29T00:15:00.617Z,19.30
2022-07-29T00:17:27.823Z,19.30
2022-07-29T00:19:54.808Z,19.30
2022-07-29T00:22:25.066Z,19.30
2022-07-29T00:24:52.052Z,19.20
2022-07-29T00:27:22.293Z,19.20
2022-07-29T00:29:52.291Z,19.20
2022-07-29T00:32:20.237Z,19.20
2022-07-29T00:35:07.707Z,19.10
2022-07-29T00:37:35.720Z,19.10
2022-07-29T00:40:04.749Z,19.10
2022-07-29T00:42:31.813Z,19.10
2022-07-29T00:45:01.895Z,19.00
2022-07-29T00:47:29.895Z,19.00
2022-07-29T00:49:58.956Z,19.00
2022-07-29T00:52:26.343Z,19.00
2022-07-29T00:54:54.311Z,19.00
2022-07-29T00:57:21.703Z,18.90
2022-07-29T00:59:48.699Z,18.90
2022-07-29T01:02:15.686Z,18.90
2022-07-29T01:04:43.762Z,18.90
2022-07-29T01:07:12.133Z,18.90
2022-07-29T01:09:45.459Z,18.90
2022-07-29T01:12:20.766Z,18.80
2022-07-29T01:14:51.822Z,18.80
2022-07-29T01:17:34.747Z,18.80
2022-07-29T01:20:39.022Z,18.80
2022-07-29T01:23:07.944Z,18.80
2022-07-29T01:25:47.202Z,18.80
2022-07-29T01:28:43.190Z,18.80
2022-07-29T01:31:26.547Z,18.70
2022-07-29T01:34:02.471Z,18.70
2022-07-29T01:36:44.716Z,18.70
2022-07-29T01:39:24.570Z,18.60
2022-07-29T01:42:19.897Z,18.60
2022-07-29T01:44:58.446Z,18.60
2022-07-29T01:47:35.687Z,18.60
2022-07-29T01:50:07.184Z,18.50
2022-07-29T01:52:58.040Z,18.50
2022-07-29T01:55:33.296Z,18.40
2022-07-29T01:58:03.369Z,18.40
2022-07-29T02:00:34.358Z,18.40
2022-07-29T02:03:12.664Z,18.40
2022-07-29T02:05:46.603Z,18.40
2022-07-29T02:08:19.501Z,18.30
2022-07-29T02:10:48.484Z,18.40
2022-07-29T02:13:19.856Z,18.30
2022-07-29T02:15:49.877Z,18.30
2022-07-29T02:18:21.651Z,18.30
2022-07-29T02:20:59.730Z,18.30
2022-07-29T02:23:31.748Z,18.30
2022-07-29T02:26:25.794Z,18.30
2022-07-29T02:28:57.279Z,18.20
2022-07-29T02:31:31.284Z,18.20
2022-07-29T02:34:00.178Z,18.20
2022-07-29T02:36:30.887Z,18.20
2022-07-29T02:39:01.685Z,18.20
2022-07-29T02:41:43.086Z,18.20
2022-07-29T02:44:15.781Z,18.20
2022-07-29T02:46:52.914Z,18.20
2022-07-29T02:49:27.507Z,18.20
2022-07-29T02:52:23.588Z,18.20
2022-07-29T02:55:12.950Z,18.20
2022-07-29T02:57:55.034Z,18.20
2022-07-29T03:00:29.038Z,18.20
2022-07-29T03:02:59.809Z,18.20
2022-07-29T03:05:32.322Z,18.20
2022-07-29T03:08:05.605Z,18.20
2022-07-29T03:10:35.858Z,18.20
2022-07-29T03:13:06.983Z,18.20
2022-07-29T03:15:38.192Z,18.20
2022-07-29T03:18:09.248Z,18.10
2022-07-29T03:20:40.031Z,18.10
2022-07-29T03:23:07.482Z,18.10
2022-07-29T03:25:35.567Z,18.10
2022-07-29T03:28:04.590Z,18.20
2022-07-29T03:30:31.790Z,18.10
2022-07-29T03:33:02.346Z,18.10
2022-07-29T03:35:36.403Z,18.10
2022-07-29T03:38:06.413Z,18.10
2022-07-29T03:41:02.755Z,18.10
2022-07-29T03:43:32.598Z,18.10
2022-07-29T03:46:03.188Z,18.10
2022-07-29T03:48:36.747Z,18.10
2022-07-29T03:51:07.670Z,18.10
2022-07-29T03:53:40.696Z,18.10
2022-07-29T03:56:17.626Z,18.10
2022-07-29T03:58:45.545Z,18.00
2022-07-29T04:01:14.717Z,18.00
2022-07-29T04:03:41.911Z,18.00
2022-07-29T04:06:12.426Z,18.00
2022-07-29T04:08:39.472Z,18.00
2022-07-29T04:11:06.974Z,18.00
2022-07-29T04:13:37.061Z,18.00
2022-07-29T04:16:05.423Z,18.00
2022-07-29T04:18:32.427Z,18.00
2022-07-29T04:21:02.562Z,18.10
2022-07-29T04:23:34.479Z,18.10
2022-07-29T04:26:02.228Z,18.10
2022-07-29T04:28:31.202Z,18.10
2022-07-29T04:30:58.261Z,18.10
2022-07-29T04:33:26.511Z,18.10
2022-07-29T04:35:56.554Z,18.10
2022-07-29T04:38:25.483Z,18.10
2022-07-29T04:40:53.578Z,18.10
2022-07-29T04:43:23.132Z,18.20
2022-07-29T04:45:51.644Z,18.20
2022-07-29T04:48:18.757Z,18.20
2022-07-29T04:50:45.807Z,18.20
2022-07-29T04:53:12.792Z,18.30
2022-07-29T04:55:41.805Z,18.30
2022-07-29T04:58:12.267Z,18.30
2022-07-29T05:00:45.362Z,18.30
2022-07-29T05:03:12.474Z,18.30
2022-07-29T05:05:43.358Z,18.40
2022-07-29T05:08:10.432Z,18.40
2022-07-29T05:10:40.313Z,18.40
2022-07-29T05:13:08.673Z,18.50
2022-07-29T05:15:36.394Z,18.50
2022-07-29T05:18:08.062Z,18.50
2022-07-29T05:20:36.356Z,18.60
2022-07-29T05:23:06.401Z,18.60
2022-07-29T05:25:43.032Z,18.60
2022-07-29T05:28:14.187Z,18.70
2022-07-29T05:30:45.532Z,18.70
2022-07-29T05:33:36.199Z,18.70
2022-07-29T05:36:08.301Z,18.80
2022-07-29T05:38:38.734Z,18.80
2022-07-29T05:41:08.745Z,18.80
2022-07-29T05:43:38.788Z,18.90
2022-07-29T05:46:09.035Z,18.90
2022-07-29T05:48:37.344Z,18.90
2022-07-29T05:51:04.371Z,18.90
2022-07-29T05:53:34.485Z,18.90
2022-07-29T05:56:06.204Z,19.00
2022-07-29T05:58:33.167Z,19.00
2022-07-29T06:01:03.678Z,19.10
2022-07-29T06:03:33.843Z,19.10
2022-07-29T06:06:00.816Z,19.10
2022-07-29T06:08:29.889Z,19.20
2022-07-29T06:10:59.906Z,19.20
2022-07-29T06:13:27.353Z,19.30
2022-07-29T06:15:57.555Z,19.30
2022-07-29T06:18:27.342Z,19.30
2022-07-29T06:20:55.559Z,19.40
2022-07-29T06:23:22.973Z,19.40
2022-07-29T06:25:50.002Z,19.50
2022-07-29T06:28:20.013Z,19.50
2022-07-29T06:30:50.124Z,19.60
2022-07-29T06:33:23.248Z,19.70
2022-07-29T06:35:53.584Z,19.70
2022-07-29T06:38:26.974Z,19.80
2022-07-29T06:41:02.266Z,19.90
2022-07-29T06:43:33.426Z,20.00
2022-07-29T06:46:09.080Z,20.10
2022-07-29T06:48:40.090Z,20.20
2022-07-29T06:51:10.523Z,20.30
2022-07-29T06:53:40.924Z,20.40
2022-07-29T06:56:28.117Z,20.50
2022-07-29T06:58:55.111Z,20.60
2022-07-29T07:01:23.213Z,20.70
2022-07-29T07:03:50.271Z,20.80
2022-07-29T07:06:19.387Z,21.10
2022-07-29T07:08:49.334Z,21.30
2022-07-29T07:11:17.308Z,21.50
2022-07-29T07:13:47.456Z,21.70
2022-07-29T07:16:17.666Z,21.90
2022-07-29T07:18:46.687Z,22.10
2022-07-29T07:21:18.996Z,22.30
2022-07-29T07:23:47.134Z,22.40
2022-07-29T07:26:14.154Z,22.60
2022-07-29T07:28:41.220Z,22.70
2022-07-29T07:31:12.104Z,22.90
2022-07-29T07:33:40.299Z,23.00
2022-07-29T07:36:11.359Z,23.10
2022-07-29T07:38:39.405Z,23.40
2022-07-29T07:41:12.431Z,23.60
2022-07-29T07:43:41.667Z,23.70
2022-07-29T07:46:09.769Z,23.80
2022-07-29T07:48:40.159Z,23.90
2022-07-29T07:51:08.263Z,24.00
2022-07-29T07:53:35.683Z,24.20
2022-07-29T07:56:12.498Z,24.50
2022-07-29T07:58:40.038Z,24.60
2022-07-29T08:01:07.494Z,24.70
2022-07-29T08:03:38.370Z,24.80
2022-07-29T08:06:05.722Z,24.80
2022-07-29T08:08:33.815Z,24.90
2022-07-29T08:11:09.189Z,25.00
2022-07-29T08:13:37.784Z,25.10
2022-07-29T08:16:14.186Z,25.20
2022-07-29T08:18:44.659Z,25.40
2022-07-29T08:21:15.650Z,25.50
2022-07-29T08:23:59.894Z,25.60
2022-07-29T08:26:31.047Z,25.80
2022-07-29T08:28:58.299Z,26.00
2022-07-29T08:31:26.410Z,26.10
2022-07-29T08:33:54.787Z,26.20
2022-07-29T08:36:22.158Z,26.30
2022-07-29T08:38:50.555Z,26.40
2022-07-29T08:41:23.931Z,26.40
2022-07-29T08:43:54.096Z,26.60
2022-07-29T08:46:23.728Z,26.70
2022-07-29T08:48:57.130Z,26.80
2022-07-29T08:51:31.775Z,26.90
2022-07-29T08:54:04.988Z,27.00
2022-07-29T08:56:34.451Z,27.20
2022-07-29T08:59:05.001Z,27.30
2022-07-29T09:01:42.323Z,27.30
2022-07-29T09:04:14.593Z,27.30
2022-07-29T09:06:48.420Z,27.30
2022-07-29T09:09:15.932Z,27.30
2022-07-29T09:11:44.248Z,27.40
2022-07-29T09:14:14.709Z,27.50
2022-07-29T09:16:53.524Z,27.60
2022-07-29T09:19:32.378Z,27.70
2022-07-29T09:22:02.972Z,28.00
2022-07-29T09:24:46.336Z,28.10
2022-07-29T09:27:24.179Z,28.10
2022-07-29T09:30:11.526Z,28.10
2022-07-29T09:33:02.565Z,28.30
2022-07-29T09:35:32.052Z,28.50
2022-07-29T09:37:59.103Z,28.60
2022-07-29T09:40:29.656Z,28.70
2022-07-29T09:42:58.762Z,28.70
2022-07-29T09:45:32.797Z,28.80
2022-07-29T09:48:04.094Z,28.80
2022-07-29T09:50:42.164Z,29.00
2022-07-29T09:53:11.944Z,29.00
2022-07-29T09:55:53.539Z,29.00
2022-07-29T09:58:23.710Z,29.20
2022-07-29T10:00:55.887Z,29.40
2022-07-29T10:03:30.257Z,29.60
2022-07-29T10:06:11.625Z,29.70
2022-07-29T10:08:39.087Z,29.60
2022-07-29T10:11:21.547Z,29.60
2022-07-29T10:13:50.752Z,29.80
2022-07-29T10:16:20.984Z,29.90
2022-07-29T10:18:49.122Z,30.00
2022-07-29T10:21:35.141Z,30.00
2022-07-29T10:24:07.560Z,30.10
2022-07-29T10:26:47.243Z,30.00
2022-07-29T10:29:17.288Z,29.90
2022-07-29T10:32:27.083Z,29.80
2022-07-29T10:35:17.271Z,29.80
2022-07-29T10:38:17.253Z,29.70
2022-07-29T10:41:29.018Z,29.60
2022-07-29T10:44:23.060Z,29.40
2022-07-29T10:46:52.976Z,29.30
2022-07-29T10:49:25.133Z,29.30
2022-07-29T10:52:09.128Z,29.20
2022-07-29T10:54:52.075Z,29.20
2022-07-29T10:57:53.803Z,29.40
2022-07-29T11:00:16.890Z,29.40
2022-07-29T11:02:52.346Z,29.60
2022-07-29T11:05:24.608Z,29.90
2022-07-29T11:08:16.689Z,30.10
2022-07-29T11:10:50.872Z,30.10
2022-07-29T11:13:51.154Z,30.10
2022-07-29T11:16:25.087Z,30.20
2022-07-29T11:19:24.740Z,30.10
2022-07-29T11:21:58.640Z,30.10
2022-07-29T11:24:32.428Z,30.10
2022-07-29T11:27:13.603Z,30.00
2022-07-29T11:30:04.783Z,30.10
2022-07-29T11:32:40.458Z,30.10
2022-07-29T11:35:37.154Z,29.90
2022-07-29T11:38:28.796Z,29.70
2022-07-29T11:41:26.031Z,29.60
2022-07-29T11:43:58.668Z,29.50
2022-07-29T11:46:46.890Z,29.50
2022-07-29T11:49:22.116Z,29.50
2022-07-29T11:52:02.948Z,29.50
2022-07-29T11:54:57.286Z,29.40
2022-07-29T11:57:36.698Z,29.40
2022-07-29T12:00:12.609Z,29.30
2022-07-29T12:02:44.039Z,29.10
2022-07-29T12:05:22.181Z,29.00
2022-07-29T12:07:53.367Z,28.90
2022-07-29T12:10:30.047Z,28.80
2022-07-29T12:13:04.371Z,28.70
2022-07-29T12:15:46.977Z,28.80
2022-07-29T12:18:23.949Z,28.60
2022-07-29T12:21:04.897Z,28.50
2022-07-29T12:23:36.326Z,28.40
2022-07-29T12:26:11.120Z,28.20
2022-07-29T12:28:54.781Z,28.10
2022-07-29T12:31:42.861Z,28.10
2022-07-29T12:34:13.344Z,28.00
2022-07-29T12:36:41.614Z,27.90
2022-07-29T12:39:10.151Z,27.90
2022-07-29T12:41:39.766Z,27.80
2022-07-29T12:44:06.825Z,27.90
2022-07-29T12:46:33.905Z,27.90
2022-07-29T12:49:04.128Z,27.80
2022-07-29T12:51:34.507Z,27.80
2022-07-29T12:54:16.989Z,27.80
2022-07-29T12:56:46.254Z,27.90
2022-07-29T12:59:21.720Z,27.90
2022-07-29T13:01:50.879Z,27.80
2022-07-29T13:04:33.870Z,27.70
2022-07-29T13:07:09.091Z,27.60
2022-07-29T13:09:48.628Z,27.50
2022-07-29T13:12:18.708Z,27.40
2022-07-29T13:14:51.302Z,27.30
2022-07-29T13:17:32.750Z,27.20
2022-07-29T13:20:10.281Z,27.10
2022-07-29T13:22:38.202Z,26.90
2022-07-29T13:25:09.844Z,26.70
2022-07-29T13:27:40.739Z,26.70
2022-07-29T13:30:11.974Z,26.70
2022-07-29T13:32:45.706Z,26.70
2022-07-29T13:35:16.121Z,26.70
2022-07-29T13:37:44.169Z,26.60
2022-07-29T13:40:17.387Z,26.60
2022-07-29T13:42:47.698Z,26.50
2022-07-29T13:45:18.471Z,26.40
2022-07-29T13:47:49.173Z,26.40
2022-07-29T13:50:19.919Z,26.40
2022-07-29T13:52:51.590Z,26.40
2022-07-29T13:55:24.631Z,26.40
2022-07-29T13:57:52.599Z,26.40
2022-07-29T14:00:21.755Z,26.40
2022-07-29T14:02:51.982Z,26.50
2022-07-29T14:05:20.999Z,26.50
2022-07-29T14:07:54.207Z,26.50
2022-07-29T14:10:24.458Z,26.40
2022-07-29T14:12:52.413Z,26.30
2022-07-29T14:15:22.540Z,26.30
2022-07-29T14:17:52.818Z,26.20
2022-07-29T14:20:21.893Z,26.20
2022-07-29T14:22:51.977Z,26.20
2022-07-29T14:25:21.390Z,26.10
2022-07-29T14:27:54.453Z,26.00
2022-07-29T14:30:23.474Z,25.90
2022-07-29T14:32:51.415Z,25.70
2022-07-29T14:35:21.573Z,25.60
2022-07-29T14:37:51.614Z,25.70
2022-07-29T14:40:21.690Z,25.70
2022-07-29T14:42:48.918Z,25.70
2022-07-29T14:45:18.968Z,25.60
2022-07-29T14:47:48.066Z,25.50
2022-07-29T14:50:16.144Z,25.40
2022-07-29T14:52:50.235Z,25.30
2022-07-29T14:55:19.749Z,25.30
2022-07-29T14:57:51.000Z,25.20
2022-07-29T15:00:21.949Z,25.20
2022-07-29T15:03:02.966Z,25.10
2022-07-29T15:05:33.652Z,25.10
2022-07-29T15:08:00.843Z,25.10
2022-07-29T15:10:33.860Z,25.00
2022-07-29T15:13:03.969Z,25.00
2022-07-29T15:15:33.965Z,25.00
2022-07-29T15:18:04.239Z,24.90
2022-07-29T15:20:34.168Z,24.90
2022-07-29T15:23:04.479Z,24.80
2022-07-29T15:25:31.508Z,24.80
2022-07-29T15:28:03.224Z,24.70
2022-07-29T15:30:33.939Z,24.70
2022-07-29T15:33:04.691Z,24.70
2022-07-29T15:35:33.043Z,24.60
2022-07-29T15:38:01.195Z,24.60
2022-07-29T15:40:39.090Z,24.50
2022-07-29T15:43:14.164Z,24.40
2022-07-29T15:46:07.118Z,24.40
2022-07-29T15:48:40.684Z,24.40
2022-07-29T15:51:07.873Z,24.30
2022-07-29T15:53:35.388Z,24.30
2022-07-29T15:56:02.641Z,24.30
2022-07-29T15:58:33.664Z,24.30
2022-07-29T16:01:01.474Z,24.30
2022-07-29T16:03:45.980Z,24.30
2022-07-29T16:06:16.790Z,24.30
2022-07-29T16:08:47.070Z,24.30
2022-07-29T16:11:14.110Z,24.40
2022-07-29T16:13:42.061Z,24.40
2022-07-29T16:16:10.086Z,24.40
2022-07-29T16:18:39.162Z,24.30
2022-07-29T16:21:09.259Z,24.20
2022-07-29T16:23:36.298Z,24.20
2022-07-29T16:26:03.409Z,24.10
2022-07-29T16:28:30.982Z,24.00
2022-07-29T16:31:01.214Z,23.90
2022-07-29T16:33:55.083Z,23.90
2022-07-29T16:36:20.604Z,23.90
2022-07-29T16:38:51.121Z,23.90
2022-07-29T16:41:20.237Z,23.80
2022-07-29T16:43:50.255Z,23.70
2022-07-29T16:46:18.886Z,23.70
2022-07-29T16:48:52.568Z,23.70
2022-07-29T16:51:20.704Z,23.70
2022-07-29T16:53:50.837Z,23.60
2022-07-29T16:56:17.871Z,23.60
2022-07-29T16:58:44.998Z,23.60
2022-07-29T17:01:12.385Z,23.50
2022-07-29T17:04:02.261Z,23.40
2022-07-29T17:06:37.165Z,23.40
2022-07-29T17:09:12.158Z,23.30
2022-07-29T17:11:51.588Z,23.20
2022-07-29T17:14:26.991Z,23.00
2022-07-29T17:17:00.424Z,23.00
2022-07-29T17:19:32.774Z,22.90
2022-07-29T17:22:15.496Z,22.90
2022-07-29T17:24:46.370Z,22.90
2022-07-29T17:27:15.283Z,22.80
2022-07-29T17:29:46.877Z,22.80
2022-07-29T17:32:15.963Z,22.80
2022-07-29T17:34:44.310Z,22.90
2022-07-29T17:37:12.291Z,22.90
2022-07-29T17:39:42.659Z,23.00
2022-07-29T17:42:12.006Z,23.00
2022-07-29T17:44:39.685Z,23.00
2022-07-29T17:47:15.837Z,23.00
2022-07-29T17:49:47.306Z,22.90
2022-07-29T17:52:18.496Z,22.70
2022-07-29T17:54:49.255Z,22.60
2022-07-29T17:57:18.298Z,22.60
2022-07-29T17:59:45.260Z,22.50
2022-07-29T18:02:15.338Z,22.40
2022-07-29T18:04:42.426Z,22.30
2022-07-29T18:07:15.500Z,22.30
2022-07-29T18:09:43.455Z,22.20
2022-07-29T18:12:13.533Z,22.20
2022-07-29T18:14:50.827Z,22.10
2022-07-29T18:17:50.421Z,22.10
2022-07-29T18:20:11.468Z,22.00
2022-07-29T18:22:41.547Z,21.90
2022-07-29T18:25:12.004Z,21.80
2022-07-29T18:27:40.490Z,21.70
2022-07-29T18:30:09.331Z,21.70
2022-07-29T18:32:39.419Z,21.70
2022-07-29T18:35:06.875Z,21.60
2022-07-29T18:38:01.697Z,21.50
2022-07-29T18:40:27.361Z,21.40
2022-07-29T18:42:59.881Z,21.40
2022-07-29T18:45:29.921Z,21.30
2022-07-29T18:48:02.765Z,21.30
2022-07-29T18:50:32.818Z,21.30
2022-07-29T18:53:03.437Z,21.20
2022-07-29T18:55:33.557Z,21.20
2022-07-29T18:58:00.630Z,21.10
2022-07-29T19:00:28.852Z,21.10
2022-07-29T19:02:57.408Z,21.10
2022-07-29T19:05:30.607Z,21.00
2022-07-29T19:07:57.601Z,20.90
2022-07-29T19:10:27.873Z,20.80
2022-07-29T19:12:58.065Z,20.70
2022-07-29T19:15:28.101Z,20.60
2022-07-29T19:18:01.181Z,20.50
2022-07-29T19:20:31.565Z,20.50
2022-07-29T19:22:59.559Z,20.40
2022-07-29T19:25:29.920Z,20.40
2022-07-29T19:27:58.051Z,20.30
2022-07-29T19:30:26.104Z,20.20
2022-07-29T19:32:56.158Z,20.10
2022-07-29T19:35:28.230Z,20.10
2022-07-29T19:37:57.500Z,20.10
2022-07-29T19:40:26.340Z,20.00
2022-07-29T19:42:56.653Z,20.00
2022-07-29T19:45:26.238Z,20.00
2022-07-29T19:48:00.803Z,19.90
2022-07-29T19:50:30.136Z,19.90
2022-07-29T19:53:00.597Z,19.90
2022-07-29T19:55:30.788Z,19.90
2022-07-29T19:57:59.426Z,19.90
2022-07-29T20:00:27.187Z,19.90
2022-07-29T20:02:58.380Z,19.80
2022-07-29T20:05:28.145Z,19.70
2022-07-29T20:07:58.711Z,19.70
2022-07-29T20:10:27.762Z,19.60
2022-07-29T20:12:57.841Z,19.60
2022-07-29T20:15:28.170Z,19.60
2022-07-29T20:17:58.221Z,19.60
2022-07-29T20:20:25.498Z,19.50
2022-07-29T20:22:54.056Z,19.60
2022-07-29T20:25:24.459Z,19.60
2022-07-29T20:27:54.595Z,19.60
2022-07-29T20:30:24.926Z,19.50
2022-07-29T20:32:52.975Z,19.50
2022-07-29T20:35:22.505Z,19.50
2022-07-29T20:37:56.227Z,19.50
2022-07-29T20:40:27.117Z,19.50
2022-07-29T20:42:55.467Z,19.50
2022-07-29T20:45:25.693Z,19.50
2022-07-29T20:47:54.743Z,19.50
2022-07-29T20:50:23.955Z,19.50
2022-07-29T20:52:52.871Z,19.50
2022-07-29T20:55:28.086Z,19.50
2022-07-29T20:57:58.135Z,19.50
2022-07-29T21:00:27.346Z,19.40
2022-07-29T21:02:55.671Z,19.40
2022-07-29T21:05:24.827Z,19.40
2022-07-29T21:07:55.429Z,19.30
2022-07-29T21:10:25.833Z,19.30
2022-07-29T21:12:52.801Z,19.30
2022-07-29T21:15:21.894Z,19.30
2022-07-29T21:17:52.222Z,19.30
2022-07-29T21:20:20.634Z,19.20
2022-07-29T21:22:50.938Z,19.20
2022-07-29T21:25:19.051Z,19.20
2022-07-29T21:28:08.061Z,19.20
2022-07-29T21:30:38.158Z,19.20
2022-07-29T21:33:08.212Z,19.20
2022-07-29T21:36:01.734Z,19.20
2022-07-29T21:38:29.012Z,19.10
2022-07-29T21:40:57.476Z,19.10
2022-07-29T21:43:26.750Z,19.10
2022-07-29T21:45:54.488Z,19.10
2022-07-29T21:48:23.785Z,19.10
2022-07-29T21:50:53.978Z,19.10
2022-07-29T21:53:22.911Z,19.10
2022-07-29T21:55:50.770Z,19.10
2022-07-29T21:58:22.162Z,19.10
2022-07-29T22:00:49.397Z,19.10
2022-07-29T22:03:19.513Z,19.10
2022-07-29T22:05:46.542Z,19.10
2022-07-29T22:08:16.651Z,19.00
2022-07-29T22:10:46.779Z,19.00
2022-07-29T22:13:16.791Z,19.00
2022-07-29T22:15:47.283Z,19.00
2022-07-29T22:18:20.906Z,19.00
2022-07-29T22:20:50.458Z,19.00
2022-07-29T22:23:19.467Z,19.00
2022-07-29T22:25:46.487Z,19.00
2022-07-29T22:28:14.493Z,19.00
2022-07-29T22:30:42.733Z,19.00
2022-07-29T22:33:17.592Z,19.00
2022-07-29T22:35:48.745Z,19.00
2022-07-29T22:38:18.625Z,19.00
2022-07-29T22:40:50.687Z,19.00
2022-07-29T22:43:20.871Z,19.00
2022-07-29T22:45:51.011Z,19.00
2022-07-29T22:48:21.090Z,19.00
2022-07-29T22:50:51.151Z,19.00
2022-07-29T22:53:21.189Z,19.00
2022-07-29T22:55:48.166Z,19.00
2022-07-29T22:58:17.210Z,18.90
2022-07-29T23:00:46.257Z,18.90
2022-07-29T23:03:19.512Z,18.90
2022-07-29T23:05:47.708Z,18.90
2022-07-29T23:08:16.926Z,18.90
2022-07-29T23:10:45.347Z,18.90
2022-07-29T23:13:15.462Z,18.90
2022-07-29T23:15:45.518Z,18.90
2022-07-29T23:18:15.814Z,18.80
2022-07-29T23:20:43.902Z,18.80
2022-07-29T23:23:10.909Z,18.80
2022-07-29T23:25:38.095Z,18.80
2022-07-29T23:28:05.447Z,18.90
2022-07-29T23:30:32.520Z,18.80
2022-07-29T23:33:01.862Z,18.80
2022-07-29T23:35:31.995Z,18.80
2022-07-29T23:38:02.198Z,18.80
2022-07-29T23:40:31.349Z,18.80
2022-07-29T23:42:59.391Z,18.80
2022-07-29T23:45:39.965Z,18.80
2022-07-29T23:48:15.197Z,18.80
2022-07-29T23:50:42.469Z,18.80
2022-07-29T23:53:09.471Z,18.80
2022-07-29T23:55:39.540Z,18.80
2022-07-29T23:58:06.513Z,18.80
